createdAt,value
2022-10-17T00:00:34.696Z,83.54
2022-10-17T00:03:02.805Z,83.83
2022-10-17T00:05:31.827Z,83.66
2022-10-17T00:07:59.484Z,83.64
2022-10-17T00:10:27.152Z,83.87
2022-10-17T00:12:54.794Z,83.64
2022-10-17T00:15:23.034Z,83.90
2022-10-17T00:17:50.814Z,83.99
2022-10-17T00:20:18.647Z,83.96
2022-10-17T00:22:47.643Z,84.22
2022-10-17T00:25:15.312Z,84.38
2022-10-17T00:27:43.392Z,84.46
2022-10-17T00:30:13.276Z,83.86
2022-10-17T00:32:41.193Z,84.50
2022-10-17T00:35:09.807Z,84.44
2022-10-17T00:37:37.464Z,84.18
2022-10-17T00:40:08.153Z,84.44
2022-10-17T00:42:35.953Z,84.73
2022-10-17T00:45:15.022Z,84.88
2022-10-17T00:47:43.067Z,84.84
2022-10-17T00:50:10.852Z,85.12
2022-10-17T00:52:38.729Z,85.09
2022-10-17T00:55:11.494Z,85.49
2022-10-17T00:57:40.169Z,85.55
2022-10-17T01:00:10.618Z,85.73
2022-10-17T01:02:38.842Z,85.67
2022-10-17T01:05:07.681Z,85.83
2022-10-17T01:07:37.266Z,86.43
2022-10-17T01:10:06.289Z,86.06
2022-10-17T01:12:42.860Z,86.04
2022-10-17T01:15:14.315Z,86.03
2022-10-17T01:17:52.109Z,86.38
2022-10-17T01:20:44.220Z,86.43
2022-10-17T01:23:24.764Z,86.76
2022-10-17T01:25:57.108Z,86.87
2022-10-17T01:31:13.798Z,87.59
2022-10-17T01:33:48.733Z,87.84
2022-10-17T01:36:26.287Z,87.98
2022-10-17T01:39:00.280Z,88.10
2022-10-17T01:41:36.049Z,87.90
2022-10-17T01:44:08.978Z,88.06
2022-10-17T01:46:39.498Z,87.81
2022-10-17T01:49:09.623Z,87.70
2022-10-17T01:51:39.284Z,87.73
2022-10-17T01:54:11.907Z,87.54
2022-10-17T01:56:40.534Z,87.53
2022-10-17T01:59:12.697Z,87.45
2022-10-17T02:01:43.014Z,87.77
2022-10-17T02:04:11.742Z,87.93
2022-10-17T02:06:39.772Z,87.90
2022-10-17T02:09:21.964Z,87.83
2022-10-17T02:12:03.574Z,88.17
2022-10-17T02:14:39.325Z,87.89
2022-10-17T02:17:12.363Z,88.29
2022-10-17T02:19:48.062Z,88.54
2022-10-17T02:22:20.970Z,88.54
2022-10-17T02:24:51.396Z,88.17
2022-10-17T02:27:26.613Z,87.88
2022-10-17T02:29:58.454Z,88.03
2022-10-17T02:32:32.744Z,88.13
2022-10-17T02:35:01.862Z,88.44
2022-10-17T02:37:31.566Z,88.43
2022-10-17T02:40:00.770Z,88.32
2022-10-17T02:42:29.472Z,88.04
2022-10-17T02:45:01.018Z,87.94
2022-10-17T02:47:33.832Z,88.41
2022-10-17T02:50:02.242Z,88.61
2022-10-17T02:52:33.523Z,88.70
2022-10-17T02:55:05.102Z,89.00
2022-10-17T02:57:37.265Z,88.89
2022-10-17T03:00:07.150Z,88.87
2022-10-17T03:02:42.395Z,89.04
2022-10-17T03:05:10.695Z,88.97
2022-10-17T03:07:38.365Z,89.26
2022-10-17T03:10:06.909Z,89.40
2022-10-17T03:12:34.682Z,89.71
2022-10-17T03:15:02.330Z,90.27
2022-10-17T03:17:29.914Z,90.06
2022-10-17T03:19:59.166Z,90.11
2022-10-17T03:22:27.048Z,89.92
2022-10-17T03:24:54.890Z,90.26
2022-10-17T03:27:22.619Z,90.79
2022-10-17T03:29:50.282Z,91.08
2022-10-17T03:32:17.945Z,90.96
2022-10-17T03:34:45.745Z,91.02
2022-10-17T03:37:14.946Z,91.72
2022-10-17T03:39:42.599Z,91.63
2022-10-17T03:42:10.259Z,91.30
2022-10-17T03:44:37.929Z,91.73
2022-10-17T03:47:08.096Z,92.33
2022-10-17T03:49:38.227Z,92.07
2022-10-17T03:52:05.983Z,92.23
2022-10-17T03:54:34.915Z,92.42
2022-10-17T03:57:02.774Z,92.14
2022-10-17T03:59:30.486Z,92.73
2022-10-17T04:01:58.165Z,92.50
2022-10-17T04:04:25.914Z,92.69
2022-10-17T04:06:53.511Z,92.63
2022-10-17T04:09:21.106Z,92.89
2022-10-17T04:11:50.153Z,92.84
2022-10-17T04:14:17.856Z,92.75
2022-10-17T04:16:45.470Z,92.91
2022-10-17T04:19:14.221Z,92.82
2022-10-17T04:21:41.928Z,93.16
2022-10-17T04:24:11.597Z,93.22
2022-10-17T04:26:39.320Z,93.21
2022-10-17T04:29:08.368Z,93.45
2022-10-17T04:31:35.995Z,93.20
2022-10-17T04:34:03.656Z,93.25
2022-10-17T04:36:31.285Z,93.42
2022-10-17T04:38:58.938Z,93.81
2022-10-17T04:41:26.962Z,93.72
2022-10-17T04:43:54.928Z,93.87
2022-10-17T04:46:24.030Z,94.00
2022-10-17T04:48:51.652Z,94.35
2022-10-17T04:51:21.972Z,94.45
2022-10-17T04:53:52.214Z,94.75
2022-10-17T04:56:21.556Z,94.55
2022-10-17T04:58:49.418Z,94.69
2022-10-17T05:01:19.175Z,95.06
2022-10-17T05:03:48.561Z,94.94
2022-10-17T05:06:18.149Z,94.91
2022-10-17T05:08:46.164Z,94.87
2022-10-17T05:11:21.379Z,94.41
2022-10-17T05:13:52.259Z,94.61
2022-10-17T05:16:19.954Z,94.43
2022-10-17T05:18:52.914Z,94.47
2022-10-17T05:21:21.734Z,94.77
2022-10-17T05:23:49.474Z,94.59
2022-10-17T05:26:17.266Z,94.94
2022-10-17T05:28:45.058Z,94.78
2022-10-17T05:31:13.178Z,95.00
2022-10-17T05:33:41.109Z,95.24
2022-10-17T05:36:10.473Z,95.04
2022-10-17T05:38:38.126Z,95.13
2022-10-17T05:41:06.772Z,95.18
2022-10-17T05:43:35.108Z,95.22
2022-10-17T05:46:05.372Z,94.76
2022-10-17T05:48:33.054Z,95.21
2022-10-17T05:51:01.405Z,95.11
2022-10-17T05:53:33.359Z,95.10
2022-10-17T05:56:02.173Z,94.74
2022-10-17T05:58:49.110Z,94.61
2022-10-17T06:01:17.820Z,95.04
2022-10-17T06:03:45.444Z,95.06
2022-10-17T06:06:14.586Z,95.18
2022-10-17T06:08:43.967Z,94.86
2022-10-17T06:11:11.674Z,94.81
2022-10-17T06:13:39.631Z,94.84
2022-10-17T06:16:07.882Z,94.93
2022-10-17T06:18:35.636Z,95.10
2022-10-17T06:21:04.210Z,95.14
2022-10-17T06:23:31.921Z,94.54
2022-10-17T06:26:02.396Z,95.02
2022-10-17T06:28:30.446Z,95.12
2022-10-17T06:30:58.183Z,95.07
2022-10-17T06:33:25.973Z,95.32
2022-10-17T06:35:53.762Z,94.97
2022-10-17T06:38:21.615Z,94.97
2022-10-17T06:40:49.226Z,95.14
2022-10-17T06:43:18.286Z,95.01
2022-10-17T06:45:47.422Z,95.36
2022-10-17T06:48:15.482Z,95.57
2022-10-17T06:50:43.197Z,95.54
2022-10-17T06:53:10.863Z,95.20
2022-10-17T06:55:38.507Z,94.86
2022-10-17T06:58:06.151Z,95.14
2022-10-17T07:00:35.541Z,95.23
2022-10-17T07:03:03.332Z,95.50
2022-10-17T07:05:30.970Z,95.32
2022-10-17T07:07:58.650Z,95.59
2022-10-17T07:10:27.491Z,95.38
2022-10-17T07:12:55.115Z,95.41
2022-10-17T07:15:22.865Z,95.38
2022-10-17T07:17:51.900Z,95.47
2022-10-17T07:20:19.573Z,95.38
2022-10-17T07:22:47.257Z,95.64
2022-10-17T07:25:14.986Z,95.51
2022-10-17T07:27:42.644Z,95.35
2022-10-17T07:30:11.660Z,95.00
2022-10-17T07:32:39.299Z,94.71
2022-10-17T07:35:08.913Z,94.93
2022-10-17T07:37:36.753Z,94.76
2022-10-17T07:40:04.994Z,94.78
2022-10-17T07:42:32.651Z,94.87
2022-10-17T07:45:00.623Z,94.78
2022-10-17T07:47:31.302Z,94.72
2022-10-17T07:49:59.440Z,94.89
2022-10-17T07:52:28.735Z,94.84
2022-10-17T07:54:56.508Z,95.06
2022-10-17T07:57:24.163Z,94.88
2022-10-17T07:59:51.872Z,94.27
2022-10-17T08:02:23.763Z,94.80
2022-10-17T08:04:51.476Z,94.98
2022-10-17T08:07:24.094Z,94.78
2022-10-17T08:09:56.084Z,95.25
2022-10-17T08:12:25.014Z,94.95
2022-10-17T08:14:52.669Z,94.31
2022-10-17T08:17:20.302Z,94.18
2022-10-17T08:19:47.975Z,94.26
2022-10-17T08:22:15.627Z,93.53
2022-10-17T08:24:44.487Z,93.58
2022-10-17T08:27:13.795Z,93.90
2022-10-17T08:29:42.057Z,93.59
2022-10-17T08:32:10.468Z,93.79
2022-10-17T08:34:38.182Z,93.78
2022-10-17T08:37:06.068Z,93.53
2022-10-17T08:39:33.798Z,93.38
2022-10-17T08:42:10.373Z,93.02
2022-10-17T08:44:49.867Z,93.24
2022-10-17T08:47:22.045Z,93.56
2022-10-17T08:49:52.517Z,93.44
2022-10-17T08:52:25.988Z,93.87
2022-10-17T08:54:53.681Z,93.66
2022-10-17T08:57:21.441Z,93.73
2022-10-17T08:59:53.613Z,93.56
2022-10-17T09:02:40.175Z,93.43
2022-10-17T09:05:26.853Z,93.53
2022-10-17T09:08:00.090Z,93.25
2022-10-17T09:10:35.179Z,93.53
2022-10-17T09:13:11.423Z,92.85
2022-10-17T09:15:47.274Z,92.85
2022-10-17T09:18:21.186Z,92.97
2022-10-17T09:20:52.857Z,92.82
2022-10-17T09:23:23.671Z,92.76
2022-10-17T09:25:54.140Z,93.01
2022-10-17T09:28:23.367Z,93.33
2022-10-17T09:30:57.051Z,93.16
2022-10-17T09:33:35.196Z,93.15
2022-10-17T09:36:14.656Z,92.92
2022-10-17T09:38:44.406Z,93.09
2022-10-17T09:41:44.439Z,93.26
2022-10-17T09:44:15.424Z,93.76
2022-10-17T09:46:50.578Z,93.99
2022-10-17T09:49:20.788Z,94.18
2022-10-17T09:51:49.315Z,94.35
2022-10-17T09:54:21.934Z,94.61
2022-10-17T09:57:01.460Z,94.88
2022-10-17T09:59:34.007Z,94.92
2022-10-17T10:02:19.770Z,94.83
2022-10-17T10:05:10.570Z,94.89
2022-10-17T10:07:39.613Z,94.96
2022-10-17T10:10:09.881Z,95.07
2022-10-17T10:12:39.543Z,94.91
2022-10-17T10:15:32.080Z,95.32
2022-10-17T10:18:01.239Z,95.47
2022-10-17T10:20:32.800Z,95.70
2022-10-17T10:23:15.939Z,96.44
2022-10-17T10:25:53.871Z,96.58
2022-10-17T10:28:23.456Z,97.12
2022-10-17T10:30:52.705Z,97.17
2022-10-17T10:33:23.826Z,98.17
2022-10-17T10:35:57.771Z,98.07
2022-10-17T10:38:25.541Z,97.76
2022-10-17T10:40:55.361Z,98.15
2022-10-17T10:43:26.311Z,98.25
2022-10-17T10:45:54.404Z,98.49
2022-10-17T10:48:25.049Z,98.32
2022-10-17T10:50:55.597Z,98.47
2022-10-17T10:53:44.289Z,99.11
2022-10-17T10:56:15.772Z,99.36
2022-10-17T10:58:52.103Z,99.12
2022-10-17T11:01:25.243Z,99.15
2022-10-17T11:04:07.963Z,99.12
2022-10-17T11:06:37.576Z,99.66
2022-10-17T11:09:14.399Z,99.77
2022-10-17T11:11:44.922Z,99.56
2022-10-17T11:14:16.212Z,99.56
2022-10-17T11:16:48.369Z,99.72
2022-10-17T11:19:21.928Z,100.00
2022-10-17T11:21:53.486Z,100.00
2022-10-17T11:24:25.523Z,100.00
2022-10-17T11:26:56.747Z,100.00
2022-10-17T11:29:28.493Z,100.00
2022-10-17T11:31:57.872Z,100.00
2022-10-17T11:34:28.434Z,100.00
2022-10-17T11:36:58.401Z,100.00
2022-10-17T11:39:31.377Z,100.00
2022-10-17T11:42:03.522Z,100.00
2022-10-17T11:44:35.681Z,100.00
2022-10-17T11:47:07.674Z,100.00
2022-10-17T11:49:41.853Z,100.00
2022-10-17T11:52:37.786Z,100.00
2022-10-17T11:55:13.699Z,100.00
2022-10-17T11:57:54.047Z,100.00
2022-10-17T12:00:32.650Z,100.00
2022-10-17T12:03:08.492Z,100.00
2022-10-17T12:05:42.570Z,100.00
2022-10-17T12:08:13.998Z,100.00
2022-10-17T12:10:47.592Z,100.00
2022-10-17T12:13:50.104Z,100.00
2022-10-17T12:16:51.011Z,100.00
2022-10-17T12:19:39.802Z,100.00
2022-10-17T12:22:20.792Z,100.00
2022-10-17T12:24:57.074Z,100.00
2022-10-17T12:27:39.339Z,100.00
2022-10-17T12:30:17.017Z,100.00
2022-10-17T12:33:07.447Z,100.00
2022-10-17T12:35:37.116Z,100.00
2022-10-17T12:38:30.165Z,100.00
2022-10-17T12:40:59.936Z,100.00
2022-10-17T12:43:56.076Z,100.00
2022-10-17T12:46:47.305Z,100.00
2022-10-17T12:49:37.834Z,100.00
2022-10-17T12:52:27.483Z,100.00
2022-10-17T12:55:12.014Z,100.00
2022-10-17T12:57:53.059Z,100.00
2022-10-17T13:00:24.548Z,100.00
2022-10-17T13:02:54.607Z,100.00
2022-10-17T13:05:28.303Z,100.00
2022-10-17T13:07:56.794Z,100.00
2022-10-17T13:10:28.225Z,100.00
2022-10-17T13:13:08.506Z,100.00
2022-10-17T13:15:37.322Z,100.00
2022-10-17T13:18:06.067Z,100.00
2022-10-17T13:20:33.974Z,100.00
2022-10-17T13:23:01.711Z,100.00
2022-10-17T13:25:31.009Z,100.00
2022-10-17T13:28:07.999Z,100.00
2022-10-17T13:30:36.886Z,100.00
2022-10-17T13:33:05.333Z,100.00
2022-10-17T13:35:55.715Z,100.00
2022-10-17T13:38:25.866Z,100.00
2022-10-17T13:41:01.703Z,100.00
2022-10-17T13:43:38.959Z,100.00
2022-10-17T13:46:32.304Z,100.00
2022-10-17T13:48:55.298Z,100.00
2022-10-17T13:51:23.289Z,100.00
2022-10-17T13:53:50.950Z,100.00
2022-10-17T13:56:28.226Z,100.00
2022-10-17T13:58:57.922Z,100.00
2022-10-17T14:01:26.974Z,100.00
2022-10-17T14:04:07.693Z,100.00
2022-10-17T14:06:39.293Z,100.00
2022-10-17T14:09:08.923Z,100.00
2022-10-17T14:11:39.622Z,100.00
2022-10-17T14:14:08.859Z,100.00
2022-10-17T14:16:39.176Z,100.00
2022-10-17T14:19:08.095Z,100.00
2022-10-17T14:21:43.709Z,100.00
2022-10-17T14:24:31.458Z,100.00
2022-10-17T14:27:01.298Z,100.00
2022-10-17T14:29:30.854Z,100.00
2022-10-17T14:32:00.503Z,100.00
2022-10-17T14:34:31.528Z,100.00
2022-10-17T14:36:59.382Z,100.00
2022-10-17T14:39:28.764Z,100.00
2022-10-17T14:41:58.724Z,100.00
2022-10-17T14:44:33.474Z,100.00
2022-10-17T14:47:18.152Z,100.00
2022-10-17T14:49:51.285Z,100.00
2022-10-17T14:52:32.785Z,100.00
2022-10-17T14:55:02.479Z,100.00
2022-10-17T14:57:42.308Z,100.00
2022-10-17T15:00:15.495Z,100.00
2022-10-17T15:02:43.226Z,100.00
2022-10-17T15:05:13.488Z,100.00
2022-10-17T15:07:41.513Z,100.00
2022-10-17T15:10:22.401Z,100.00
2022-10-17T15:12:57.564Z,100.00
2022-10-17T15:15:29.265Z,100.00
2022-10-17T15:17:56.932Z,100.00
2022-10-17T15:20:27.913Z,100.00
2022-10-17T15:22:56.248Z,100.00
2022-10-17T15:25:24.230Z,100.00
2022-10-17T15:27:51.923Z,100.00
2022-10-17T15:30:22.789Z,100.00
2022-10-17T15:32:53.451Z,100.00
2022-10-17T15:35:21.974Z,100.00
2022-10-17T15:37:50.373Z,100.00
2022-10-17T15:40:19.544Z,100.00
2022-10-17T15:42:47.370Z,100.00
2022-10-17T15:45:21.577Z,100.00
2022-10-17T15:47:53.798Z,100.00
2022-10-17T15:50:22.572Z,100.00
2022-10-17T15:52:52.222Z,100.00
2022-10-17T15:55:20.006Z,100.00
2022-10-17T15:57:49.070Z,100.00
2022-10-17T16:00:18.434Z,100.00
2022-10-17T16:02:46.538Z,100.00
2022-10-17T16:05:18.033Z,100.00
2022-10-17T16:07:46.867Z,100.00
2022-10-17T16:10:15.043Z,100.00
2022-10-17T16:12:43.344Z,100.00
2022-10-17T16:15:15.964Z,100.00
2022-10-17T16:17:43.975Z,100.00
2022-10-17T16:20:12.653Z,100.00
2022-10-17T16:22:43.642Z,100.00
2022-10-17T16:25:20.153Z,100.00
2022-10-17T16:27:48.407Z,100.00
2022-10-17T16:30:16.657Z,100.00
2022-10-17T16:32:44.412Z,100.00
2022-10-17T16:35:17.705Z,100.00
2022-10-17T16:37:47.510Z,100.00
2022-10-17T16:40:15.780Z,100.00
2022-10-17T16:42:43.763Z,100.00
2022-10-17T16:45:16.983Z,100.00
2022-10-17T16:47:44.709Z,100.00
2022-10-17T16:50:12.580Z,100.00
2022-10-17T16:52:40.237Z,100.00
2022-10-17T16:55:10.885Z,100.00
2022-10-17T16:57:38.745Z,100.00
2022-10-17T17:00:08.002Z,100.00
2022-10-17T17:02:35.742Z,100.00
2022-10-17T17:05:03.434Z,100.00
2022-10-17T17:07:31.326Z,100.00
2022-10-17T17:09:59.247Z,100.00
2022-10-17T17:12:28.318Z,100.00
2022-10-17T17:14:55.950Z,100.00
2022-10-17T17:17:36.913Z,100.00
2022-10-17T17:20:11.428Z,100.00
2022-10-17T17:22:39.933Z,100.00
2022-10-17T17:25:08.086Z,100.00
2022-10-17T17:27:37.117Z,100.00
2022-10-17T17:30:05.238Z,100.00
2022-10-17T17:32:33.858Z,100.00
2022-10-17T17:35:01.527Z,100.00
2022-10-17T17:37:29.590Z,100.00
2022-10-17T17:39:57.437Z,99.76
2022-10-17T17:42:25.126Z,99.62
2022-10-17T17:44:54.194Z,99.59
2022-10-17T17:47:21.779Z,100.00
2022-10-17T17:49:49.425Z,100.00
2022-10-17T17:52:17.143Z,99.80
2022-10-17T17:54:45.581Z,99.23
2022-10-17T17:57:13.296Z,99.46
2022-10-17T17:59:41.475Z,99.26
2022-10-17T18:02:10.897Z,99.70
2022-10-17T18:04:38.686Z,99.68
2022-10-17T18:07:06.454Z,99.70
2022-10-17T18:09:34.199Z,99.72
2022-10-17T18:12:01.879Z,99.45
2022-10-17T18:14:29.565Z,99.48
2022-10-17T18:16:57.201Z,99.46
2022-10-17T18:19:28.190Z,99.61
2022-10-17T18:21:55.859Z,99.39
2022-10-17T18:24:23.478Z,99.42
2022-10-17T18:26:53.873Z,99.48
2022-10-17T18:29:21.570Z,99.60
2022-10-17T18:31:49.165Z,99.67
2022-10-17T18:34:16.768Z,99.61
2022-10-17T18:36:45.837Z,100.00
2022-10-17T18:39:13.455Z,100.00
2022-10-17T18:41:41.074Z,99.72
2022-10-17T18:44:08.739Z,99.70
2022-10-17T18:46:40.798Z,99.75
2022-10-17T18:49:09.062Z,99.63
2022-10-17T18:51:36.790Z,99.95
2022-10-17T18:54:05.861Z,99.93
2022-10-17T18:56:33.537Z,99.57
2022-10-17T18:59:02.118Z,99.72
2022-10-17T19:01:29.733Z,99.47
2022-10-17T19:03:59.168Z,99.42
2022-10-17T19:06:28.180Z,99.42
2022-10-17T19:08:56.023Z,99.37
2022-10-17T19:11:26.804Z,99.75
2022-10-17T19:13:54.991Z,99.59
2022-10-17T19:16:24.816Z,99.47
2022-10-17T19:18:53.096Z,99.49
2022-10-17T19:21:22.054Z,99.62
2022-10-17T19:23:51.532Z,99.90
2022-10-17T19:26:20.026Z,100.00
2022-10-17T19:28:52.081Z,99.67
2022-10-17T19:31:26.215Z,99.91
2022-10-17T19:33:54.868Z,100.00
2022-10-17T19:36:25.401Z,100.00
2022-10-17T19:38:55.622Z,100.00
2022-10-17T19:41:23.659Z,99.67
2022-10-17T19:43:52.994Z,100.00
2022-10-17T19:46:27.213Z,100.00
2022-10-17T19:48:54.858Z,99.97
2022-10-17T19:51:24.364Z,99.80
2022-10-17T19:53:52.946Z,99.97
2022-10-17T19:56:21.054Z,99.93
2022-10-17T19:58:49.348Z,100.00
2022-10-17T20:01:20.182Z,100.00
2022-10-17T20:03:47.968Z,99.82
2022-10-17T20:06:16.129Z,100.00
2022-10-17T20:08:44.070Z,100.00
2022-10-17T20:11:13.759Z,100.00
2022-10-17T20:13:41.744Z,100.00
2022-10-17T20:16:16.583Z,100.00
2022-10-17T20:18:45.671Z,100.00
2022-10-17T20:21:15.665Z,100.00
2022-10-17T20:23:43.777Z,100.00
2022-10-17T20:26:33.181Z,100.00
2022-10-17T20:29:08.553Z,100.00
2022-10-17T20:31:36.415Z,100.00
2022-10-17T20:34:05.360Z,100.00
2022-10-17T20:36:36.981Z,100.00
2022-10-17T20:39:06.277Z,99.99
2022-10-17T20:41:34.516Z,100.00
2022-10-17T20:44:02.141Z,100.00
2022-10-17T20:46:39.682Z,100.00
2022-10-17T20:49:15.975Z,100.00
2022-10-17T20:51:44.005Z,99.73
2022-10-17T20:54:11.699Z,99.98
2022-10-17T20:56:39.827Z,99.39
2022-10-17T20:59:09.165Z,99.78
2022-10-17T21:01:37.013Z,99.73
2022-10-17T21:04:26.907Z,99.54
2022-10-17T21:06:54.492Z,99.45
2022-10-17T21:09:22.928Z,99.70
2022-10-17T21:11:55.019Z,99.46
2022-10-17T21:14:23.645Z,99.28
2022-10-17T21:16:52.224Z,99.24
2022-10-17T21:19:21.574Z,99.15
2022-10-17T21:21:49.222Z,99.24
2022-10-17T21:24:20.450Z,98.79
2022-10-17T21:26:50.091Z,98.83
2022-10-17T21:29:17.851Z,98.52
2022-10-17T21:31:45.644Z,98.71
2022-10-17T21:34:15.289Z,98.62
2022-10-17T21:36:44.066Z,98.45
2022-10-17T21:39:12.231Z,98.60
2022-10-17T21:41:41.822Z,98.64
2022-10-17T21:44:13.201Z,98.33
2022-10-17T21:46:40.853Z,98.16
2022-10-17T21:49:08.521Z,97.80
2022-10-17T21:51:36.170Z,98.05
2022-10-17T21:54:05.695Z,97.99
2022-10-17T21:56:34.708Z,97.45
2022-10-17T21:59:04.833Z,97.24
2022-10-17T22:01:34.369Z,97.32
2022-10-17T22:04:03.738Z,97.04
2022-10-17T22:06:39.688Z,97.20
2022-10-17T22:09:10.307Z,97.40
2022-10-17T22:11:38.139Z,97.75
2022-10-17T22:14:08.635Z,97.70
2022-10-17T22:16:36.457Z,97.47
2022-10-17T22:19:06.675Z,97.17
2022-10-17T22:21:35.537Z,97.06
2022-10-17T22:24:04.975Z,97.18
2022-10-17T22:26:34.444Z,97.26
2022-10-17T22:29:02.504Z,97.20
2022-10-17T22:31:31.636Z,97.15
2022-10-17T22:33:59.262Z,96.92
2022-10-17T22:36:26.983Z,97.13
2022-10-17T22:38:54.693Z,97.17
2022-10-17T22:41:23.209Z,97.32
2022-10-17T22:43:50.906Z,97.49
2022-10-17T22:46:18.577Z,97.36
2022-10-17T22:48:47.622Z,97.84
2022-10-17T22:51:15.495Z,97.90
2022-10-17T22:53:43.272Z,97.72
2022-10-17T22:56:12.851Z,97.89
2022-10-17T22:58:40.808Z,97.78
2022-10-17T23:01:09.483Z,97.61
2022-10-17T23:03:37.147Z,98.18
2022-10-17T23:06:06.499Z,97.97
2022-10-17T23:08:34.174Z,98.40
2022-10-17T23:11:01.822Z,98.59
2022-10-17T23:13:29.468Z,99.24
2022-10-17T23:15:58.373Z,99.78
2022-10-17T23:18:26.973Z,100.00
2022-10-17T23:20:55.130Z,99.96
2022-10-17T23:23:24.457Z,99.84
2022-10-17T23:25:52.112Z,99.77
2022-10-17T23:28:19.931Z,99.61
2022-10-17T23:30:47.587Z,100.00
2022-10-17T23:33:15.543Z,99.86
2022-10-17T23:35:43.192Z,99.81
2022-10-17T23:38:10.867Z,99.55
2022-10-17T23:40:39.886Z,99.76
2022-10-17T23:43:07.578Z,100.00
2022-10-17T23:45:37.156Z,100.00
2022-10-17T23:48:05.664Z,100.00
2022-10-17T23:50:33.320Z,100.00
2022-10-17T23:53:00.897Z,100.00
2022-10-17T23:55:28.743Z,100.00
2022-10-17T23:57:57.773Z,100.00
